sensor_id;sensor_type;location;lat;lon;timestamp;P1;durP1;ratioP1;P2;durP2;ratioP2
35990;SDS011;22064;42.672;23.282;2022-08-19T00:00:19;10.60;;;6.40;;
35990;SDS011;22064;42.672;23.282;2022-08-19T00:02:44;12.88;;;7.18;;
35990;SDS011;22064;42.672;23.282;2022-08-19T00:05:11;13.35;;;7.20;;
35990;SDS011;22064;42.672;23.282;2022-08-19T00:07:39;13.25;;;7.68;;
35990;SDS011;22064;42.672;23.282;2022-08-19T00:10:05;13.68;;;7.38;;
35990;SDS011;22064;42.672;23.282;2022-08-19T00:12:32;14.10;;;8.57;;
35990;SDS011;22064;42.672;23.282;2022-08-19T00:14:58;11.85;;;7.20;;
35990;SDS011;22064;42.672;23.282;2022-08-19T00:17:23;10.38;;;6.53;;
35990;SDS011;22064;42.672;23.282;2022-08-19T00:19:49;12.15;;;6.90;;
35990;SDS011;22064;42.672;23.282;2022-08-19T00:22:15;10.75;;;6.85;;
35990;SDS011;22064;42.672;23.282;2022-08-19T00:24:43;12.07;;;7.47;;
35990;SDS011;22064;42.672;23.282;2022-08-19T00:27:10;10.05;;;6.68;;
35990;SDS011;22064;42.672;23.282;2022-08-19T00:29:37;9.77;;;6.22;;
35990;SDS011;22064;42.672;23.282;2022-08-19T00:32:03;10.95;;;5.82;;
35990;SDS011;22064;42.672;23.282;2022-08-19T00:34:29;10.05;;;6.10;;
35990;SDS011;22064;42.672;23.282;2022-08-19T00:36:55;10.68;;;6.00;;
35990;SDS011;22064;42.672;23.282;2022-08-19T00:39:21;9.40;;;5.88;;
35990;SDS011;22064;42.672;23.282;2022-08-19T00:41:47;9.38;;;5.90;;
35990;SDS011;22064;42.672;23.282;2022-08-19T00:46:43;9.38;;;6.13;;
35990;SDS011;22064;42.672;23.282;2022-08-19T00:49:22;8.38;;;6.10;;
35990;SDS011;22064;42.672;23.282;2022-08-19T00:54:45;9.45;;;6.50;;
35990;SDS011;22064;42.672;23.282;2022-08-19T00:57:14;9.65;;;6.10;;
35990;SDS011;22064;42.672;23.282;2022-08-19T00:59:43;11.15;;;6.22;;
35990;SDS011;22064;42.672;23.282;2022-08-19T01:02:11;10.93;;;5.90;;
35990;SDS011;22064;42.672;23.282;2022-08-19T01:04:37;9.52;;;5.90;;
35990;SDS011;22064;42.672;23.282;2022-08-19T01:07:03;11.52;;;6.18;;
35990;SDS011;22064;42.672;23.282;2022-08-19T01:09:29;10.55;;;6.43;;
35990;SDS011;22064;42.672;23.282;2022-08-19T01:11:57;12.13;;;5.85;;
35990;SDS011;22064;42.672;23.282;2022-08-19T01:14:22;10.10;;;6.07;;
35990;SDS011;22064;42.672;23.282;2022-08-19T01:16:49;10.23;;;6.47;;
35990;SDS011;22064;42.672;23.282;2022-08-19T01:21:50;9.80;;;6.35;;
35990;SDS011;22064;42.672;23.282;2022-08-19T01:24:20;9.13;;;5.95;;
35990;SDS011;22064;42.672;23.282;2022-08-19T01:26:46;10.18;;;6.38;;
35990;SDS011;22064;42.672;23.282;2022-08-19T01:29:12;9.82;;;6.22;;
35990;SDS011;22064;42.672;23.282;2022-08-19T01:31:39;12.45;;;6.35;;
35990;SDS011;22064;42.672;23.282;2022-08-19T01:34:05;8.32;;;6.20;;
35990;SDS011;22064;42.672;23.282;2022-08-19T01:36:33;9.38;;;6.45;;
35990;SDS011;22064;42.672;23.282;2022-08-19T01:39:09;9.35;;;6.00;;
35990;SDS011;22064;42.672;23.282;2022-08-19T01:44:02;10.98;;;6.75;;
35990;SDS011;22064;42.672;23.282;2022-08-19T01:46:29;11.93;;;6.82;;
35990;SDS011;22064;42.672;23.282;2022-08-19T01:48:55;14.25;;;7.38;;
35990;SDS011;22064;42.672;23.282;2022-08-19T01:51:21;13.88;;;8.07;;
35990;SDS011;22064;42.672;23.282;2022-08-19T01:53:47;13.52;;;8.07;;
35990;SDS011;22064;42.672;23.282;2022-08-19T01:56:14;15.20;;;7.38;;
35990;SDS011;22064;42.672;23.282;2022-08-19T01:58:49;14.65;;;7.75;;
35990;SDS011;22064;42.672;23.282;2022-08-19T02:01:19;12.68;;;7.80;;
35990;SDS011;22064;42.672;23.282;2022-08-19T02:03:44;15.65;;;8.75;;
35990;SDS011;22064;42.672;23.282;2022-08-19T02:06:11;11.95;;;7.68;;
35990;SDS011;22064;42.672;23.282;2022-08-19T02:08:37;12.52;;;7.40;;
35990;SDS011;22064;42.672;23.282;2022-08-19T02:11:04;17.15;;;8.00;;
35990;SDS011;22064;42.672;23.282;2022-08-19T02:13:31;14.65;;;7.78;;
35990;SDS011;22064;42.672;23.282;2022-08-19T02:15:56;17.13;;;8.10;;
35990;SDS011;22064;42.672;23.282;2022-08-19T02:18:23;19.42;;;8.88;;
35990;SDS011;22064;42.672;23.282;2022-08-19T02:20:48;16.75;;;9.23;;
35990;SDS011;22064;42.672;23.282;2022-08-19T02:23:15;17.80;;;9.00;;
35990;SDS011;22064;42.672;23.282;2022-08-19T02:25:42;17.48;;;9.02;;
35990;SDS011;22064;42.672;23.282;2022-08-19T02:28:09;20.00;;;9.30;;
35990;SDS011;22064;42.672;23.282;2022-08-19T02:30:35;18.85;;;9.02;;
35990;SDS011;22064;42.672;23.282;2022-08-19T02:33:00;18.42;;;8.82;;
35990;SDS011;22064;42.672;23.282;2022-08-19T02:35:26;16.83;;;8.40;;
35990;SDS011;22064;42.672;23.282;2022-08-19T02:37:51;18.20;;;8.60;;
35990;SDS011;22064;42.672;23.282;2022-08-19T02:40:36;17.80;;;9.20;;
35990;SDS011;22064;42.672;23.282;2022-08-19T02:43:02;16.58;;;9.02;;
35990;SDS011;22064;42.672;23.282;2022-08-19T02:45:35;15.48;;;8.35;;
35990;SDS011;22064;42.672;23.282;2022-08-19T02:48:02;16.88;;;8.85;;
35990;SDS011;22064;42.672;23.282;2022-08-19T02:50:28;18.77;;;9.07;;
35990;SDS011;22064;42.672;23.282;2022-08-19T02:52:53;17.52;;;8.75;;
35990;SDS011;22064;42.672;23.282;2022-08-19T02:55:19;17.95;;;8.50;;
35990;SDS011;22064;42.672;23.282;2022-08-19T02:57:46;18.13;;;8.65;;
35990;SDS011;22064;42.672;23.282;2022-08-19T03:00:12;17.52;;;9.45;;
35990;SDS011;22064;42.672;23.282;2022-08-19T03:02:38;16.48;;;8.48;;
35990;SDS011;22064;42.672;23.282;2022-08-19T03:05:05;18.67;;;8.63;;
35990;SDS011;22064;42.672;23.282;2022-08-19T03:07:33;17.08;;;8.73;;
35990;SDS011;22064;42.672;23.282;2022-08-19T03:09:59;15.30;;;8.15;;
35990;SDS011;22064;42.672;23.282;2022-08-19T03:12:24;16.00;;;7.88;;
35990;SDS011;22064;42.672;23.282;2022-08-19T03:14:50;15.30;;;8.07;;
35990;SDS011;22064;42.672;23.282;2022-08-19T03:17:17;15.00;;;7.85;;
35990;SDS011;22064;42.672;23.282;2022-08-19T03:19:42;16.33;;;8.40;;
35990;SDS011;22064;42.672;23.282;2022-08-19T03:22:08;14.65;;;7.93;;
35990;SDS011;22064;42.672;23.282;2022-08-19T03:24:34;17.38;;;9.00;;
35990;SDS011;22064;42.672;23.282;2022-08-19T03:27:00;17.65;;;8.23;;
35990;SDS011;22064;42.672;23.282;2022-08-19T03:29:27;18.10;;;10.20;;
35990;SDS011;22064;42.672;23.282;2022-08-19T03:31:54;20.75;;;10.07;;
35990;SDS011;22064;42.672;23.282;2022-08-19T03:34:25;22.65;;;9.98;;
35990;SDS011;22064;42.672;23.282;2022-08-19T03:36:56;20.63;;;10.45;;
35990;SDS011;22064;42.672;23.282;2022-08-19T03:39:24;20.58;;;9.70;;
35990;SDS011;22064;42.672;23.282;2022-08-19T03:41:50;16.25;;;9.38;;
35990;SDS011;22064;42.672;23.282;2022-08-19T03:44:18;18.35;;;9.68;;
35990;SDS011;22064;42.672;23.282;2022-08-19T03:46:46;17.95;;;9.43;;
35990;SDS011;22064;42.672;23.282;2022-08-19T03:49:14;21.10;;;9.63;;
35990;SDS011;22064;42.672;23.282;2022-08-19T03:51:41;17.35;;;8.73;;
35990;SDS011;22064;42.672;23.282;2022-08-19T03:54:10;17.55;;;9.32;;
35990;SDS011;22064;42.672;23.282;2022-08-19T03:56:39;15.10;;;8.77;;
35990;SDS011;22064;42.672;23.282;2022-08-19T03:59:06;19.00;;;9.10;;
35990;SDS011;22064;42.672;23.282;2022-08-19T04:01:34;15.02;;;8.93;;
35990;SDS011;22064;42.672;23.282;2022-08-19T04:04:00;19.13;;;9.35;;
35990;SDS011;22064;42.672;23.282;2022-08-19T04:06:30;18.45;;;8.90;;
35990;SDS011;22064;42.672;23.282;2022-08-19T04:08:58;17.05;;;9.07;;
35990;SDS011;22064;42.672;23.282;2022-08-19T04:11:27;15.10;;;8.98;;
35990;SDS011;22064;42.672;23.282;2022-08-19T04:13:54;15.90;;;8.73;;
35990;SDS011;22064;42.672;23.282;2022-08-19T04:16:21;15.75;;;9.02;;
35990;SDS011;22064;42.672;23.282;2022-08-19T04:18:48;16.42;;;8.07;;
35990;SDS011;22064;42.672;23.282;2022-08-19T04:21:15;17.05;;;9.73;;
35990;SDS011;22064;42.672;23.282;2022-08-19T04:23:45;15.25;;;8.43;;
35990;SDS011;22064;42.672;23.282;2022-08-19T04:26:12;13.70;;;7.93;;
35990;SDS011;22064;42.672;23.282;2022-08-19T04:28:44;13.65;;;7.70;;
35990;SDS011;22064;42.672;23.282;2022-08-19T04:31:17;15.25;;;7.75;;
35990;SDS011;22064;42.672;23.282;2022-08-19T04:33:44;13.73;;;7.55;;
35990;SDS011;22064;42.672;23.282;2022-08-19T04:36:23;21.73;;;13.25;;
35990;SDS011;22064;42.672;23.282;2022-08-19T04:38:54;16.15;;;8.68;;
35990;SDS011;22064;42.672;23.282;2022-08-19T04:41:22;16.90;;;8.95;;
35990;SDS011;22064;42.672;23.282;2022-08-19T04:44:06;13.00;;;7.90;;
35990;SDS011;22064;42.672;23.282;2022-08-19T04:46:32;18.58;;;8.43;;
35990;SDS011;22064;42.672;23.282;2022-08-19T04:48:58;18.67;;;8.07;;
35990;SDS011;22064;42.672;23.282;2022-08-19T04:51:25;17.50;;;8.45;;
35990;SDS011;22064;42.672;23.282;2022-08-19T04:53:51;16.35;;;8.77;;
35990;SDS011;22064;42.672;23.282;2022-08-19T04:56:18;16.35;;;8.55;;
35990;SDS011;22064;42.672;23.282;2022-08-19T04:58:47;16.40;;;8.88;;
35990;SDS011;22064;42.672;23.282;2022-08-19T05:01:16;19.58;;;10.05;;
35990;SDS011;22064;42.672;23.282;2022-08-19T05:03:44;20.98;;;10.27;;
35990;SDS011;22064;42.672;23.282;2022-08-19T05:06:11;23.10;;;11.30;;
35990;SDS011;22064;42.672;23.282;2022-08-19T05:08:39;24.45;;;10.95;;
35990;SDS011;22064;42.672;23.282;2022-08-19T05:16:17;17.00;;;9.15;;
35990;SDS011;22064;42.672;23.282;2022-08-19T05:18:45;21.25;;;9.65;;
35990;SDS011;22064;42.672;23.282;2022-08-19T05:21:29;23.05;;;9.55;;
35990;SDS011;22064;42.672;23.282;2022-08-19T05:24:14;18.50;;;9.25;;
35990;SDS011;22064;42.672;23.282;2022-08-19T05:26:41;17.35;;;9.30;;
35990;SDS011;22064;42.672;23.282;2022-08-19T05:29:11;22.67;;;9.82;;
35990;SDS011;22064;42.672;23.282;2022-08-19T05:31:38;15.10;;;9.25;;
35990;SDS011;22064;42.672;23.282;2022-08-19T05:34:04;21.17;;;10.45;;
35990;SDS011;22064;42.672;23.282;2022-08-19T05:36:33;18.60;;;9.65;;
35990;SDS011;22064;42.672;23.282;2022-08-19T05:39:11;19.50;;;10.07;;
35990;SDS011;22064;42.672;23.282;2022-08-19T05:41:45;21.20;;;10.38;;
35990;SDS011;22064;42.672;23.282;2022-08-19T05:44:13;18.63;;;10.10;;
35990;SDS011;22064;42.672;23.282;2022-08-19T05:46:40;17.70;;;10.07;;
35990;SDS011;22064;42.672;23.282;2022-08-19T05:49:08;18.85;;;10.48;;
35990;SDS011;22064;42.672;23.282;2022-08-19T05:51:34;24.33;;;10.55;;
35990;SDS011;22064;42.672;23.282;2022-08-19T05:54:02;22.33;;;10.30;;
35990;SDS011;22064;42.672;23.282;2022-08-19T05:56:29;18.77;;;10.07;;
35990;SDS011;22064;42.672;23.282;2022-08-19T05:58:56;17.95;;;10.38;;
35990;SDS011;22064;42.672;23.282;2022-08-19T06:01:23;22.65;;;11.48;;
35990;SDS011;22064;42.672;23.282;2022-08-19T06:03:50;19.50;;;10.55;;
35990;SDS011;22064;42.672;23.282;2022-08-19T06:06:16;24.92;;;12.07;;
35990;SDS011;22064;42.672;23.282;2022-08-19T06:08:43;22.17;;;12.32;;
35990;SDS011;22064;42.672;23.282;2022-08-19T06:11:19;24.60;;;11.90;;
35990;SDS011;22064;42.672;23.282;2022-08-19T06:14:07;21.33;;;11.18;;
35990;SDS011;22064;42.672;23.282;2022-08-19T06:16:36;20.35;;;11.00;;
35990;SDS011;22064;42.672;23.282;2022-08-19T06:19:05;20.95;;;11.23;;
35990;SDS011;22064;42.672;23.282;2022-08-19T06:21:33;17.92;;;11.00;;
35990;SDS011;22064;42.672;23.282;2022-08-19T06:24:02;21.83;;;11.93;;
35990;SDS011;22064;42.672;23.282;2022-08-19T06:26:29;20.00;;;11.05;;
35990;SDS011;22064;42.672;23.282;2022-08-19T06:28:56;20.90;;;11.10;;
35990;SDS011;22064;42.672;23.282;2022-08-19T06:31:23;19.52;;;11.20;;
35990;SDS011;22064;42.672;23.282;2022-08-19T06:36:20;21.73;;;11.57;;
35990;SDS011;22064;42.672;23.282;2022-08-19T06:38:55;23.10;;;11.63;;
35990;SDS011;22064;42.672;23.282;2022-08-19T06:41:23;20.30;;;10.73;;
35990;SDS011;22064;42.672;23.282;2022-08-19T06:43:49;21.88;;;9.77;;
35990;SDS011;22064;42.672;23.282;2022-08-19T06:46:16;22.15;;;10.50;;
35990;SDS011;22064;42.672;23.282;2022-08-19T06:48:43;20.38;;;10.73;;
35990;SDS011;22064;42.672;23.282;2022-08-19T06:51:10;18.60;;;10.10;;
35990;SDS011;22064;42.672;23.282;2022-08-19T06:53:35;19.20;;;9.70;;
35990;SDS011;22064;42.672;23.282;2022-08-19T06:56:01;20.20;;;9.52;;
35990;SDS011;22064;42.672;23.282;2022-08-19T06:58:30;19.48;;;9.32;;
35990;SDS011;22064;42.672;23.282;2022-08-19T07:01:01;17.23;;;9.35;;
35990;SDS011;22064;42.672;23.282;2022-08-19T07:03:29;20.52;;;9.73;;
35990;SDS011;22064;42.672;23.282;2022-08-19T07:05:56;20.98;;;9.90;;
35990;SDS011;22064;42.672;23.282;2022-08-19T07:08:22;18.17;;;9.73;;
35990;SDS011;22064;42.672;23.282;2022-08-19T07:10:49;16.83;;;9.85;;
35990;SDS011;22064;42.672;23.282;2022-08-19T07:13:14;17.95;;;9.52;;
35990;SDS011;22064;42.672;23.282;2022-08-19T07:15:40;16.63;;;8.98;;
35990;SDS011;22064;42.672;23.282;2022-08-19T07:18:06;19.20;;;9.57;;
35990;SDS011;22064;42.672;23.282;2022-08-19T07:20:31;17.02;;;9.25;;
35990;SDS011;22064;42.672;23.282;2022-08-19T07:22:58;20.23;;;9.57;;
35990;SDS011;22064;42.672;23.282;2022-08-19T07:25:23;17.63;;;9.20;;
35990;SDS011;22064;42.672;23.282;2022-08-19T07:27:49;24.48;;;10.27;;
35990;SDS011;22064;42.672;23.282;2022-08-19T07:30:15;16.48;;;8.85;;
35990;SDS011;22064;42.672;23.282;2022-08-19T07:32:42;18.08;;;9.25;;
35990;SDS011;22064;42.672;23.282;2022-08-19T07:35:08;20.08;;;9.93;;
35990;SDS011;22064;42.672;23.282;2022-08-19T07:37:34;18.35;;;8.82;;
35990;SDS011;22064;42.672;23.282;2022-08-19T07:40:03;13.98;;;8.63;;
35990;SDS011;22064;42.672;23.282;2022-08-19T07:44:57;14.48;;;8.30;;
35990;SDS011;22064;42.672;23.282;2022-08-19T07:47:23;18.42;;;9.40;;
35990;SDS011;22064;42.672;23.282;2022-08-19T07:49:48;14.98;;;8.57;;
35990;SDS011;22064;42.672;23.282;2022-08-19T07:52:14;16.35;;;8.68;;
35990;SDS011;22064;42.672;23.282;2022-08-19T07:54:41;16.05;;;8.82;;
35990;SDS011;22064;42.672;23.282;2022-08-19T07:57:08;14.20;;;8.98;;
35990;SDS011;22064;42.672;23.282;2022-08-19T07:59:33;14.32;;;8.27;;
35990;SDS011;22064;42.672;23.282;2022-08-19T08:02:00;18.25;;;8.07;;
35990;SDS011;22064;42.672;23.282;2022-08-19T08:04:26;16.70;;;8.68;;
35990;SDS011;22064;42.672;23.282;2022-08-19T08:07:11;13.82;;;8.10;;
35990;SDS011;22064;42.672;23.282;2022-08-19T08:09:55;15.75;;;8.32;;
35990;SDS011;22064;42.672;23.282;2022-08-19T08:12:22;14.10;;;7.97;;
35990;SDS011;22064;42.672;23.282;2022-08-19T08:14:59;14.23;;;8.48;;
35990;SDS011;22064;42.672;23.282;2022-08-19T08:17:29;14.25;;;8.57;;
35990;SDS011;22064;42.672;23.282;2022-08-19T08:19:57;16.13;;;8.32;;
35990;SDS011;22064;42.672;23.282;2022-08-19T08:22:23;17.05;;;8.18;;
35990;SDS011;22064;42.672;23.282;2022-08-19T08:25:10;17.40;;;8.50;;
35990;SDS011;22064;42.672;23.282;2022-08-19T08:27:42;18.05;;;8.10;;
35990;SDS011;22064;42.672;23.282;2022-08-19T08:30:14;14.88;;;7.82;;
35990;SDS011;22064;42.672;23.282;2022-08-19T08:32:42;16.55;;;7.75;;
35990;SDS011;22064;42.672;23.282;2022-08-19T08:35:09;17.08;;;8.02;;
35990;SDS011;22064;42.672;23.282;2022-08-19T08:37:37;13.38;;;7.45;;
35990;SDS011;22064;42.672;23.282;2022-08-19T08:40:16;14.90;;;7.18;;
35990;SDS011;22064;42.672;23.282;2022-08-19T08:42:55;14.48;;;7.05;;
35990;SDS011;22064;42.672;23.282;2022-08-19T08:45:27;15.23;;;6.75;;
35990;SDS011;22064;42.672;23.282;2022-08-19T08:47:55;13.27;;;6.88;;
35990;SDS011;22064;42.672;23.282;2022-08-19T08:50:38;14.65;;;7.68;;
35990;SDS011;22064;42.672;23.282;2022-08-19T08:53:08;15.60;;;7.55;;
35990;SDS011;22064;42.672;23.282;2022-08-19T08:55:35;12.48;;;6.47;;
35990;SDS011;22064;42.672;23.282;2022-08-19T08:58:06;11.45;;;6.07;;
35990;SDS011;22064;42.672;23.282;2022-08-19T09:00:40;13.27;;;6.38;;
35990;SDS011;22064;42.672;23.282;2022-08-19T09:03:19;12.25;;;6.40;;
35990;SDS011;22064;42.672;23.282;2022-08-19T09:10:55;9.80;;;5.13;;
35990;SDS011;22064;42.672;23.282;2022-08-19T09:16:20;10.13;;;4.88;;
35990;SDS011;22064;42.672;23.282;2022-08-19T09:18:52;8.48;;;4.80;;
35990;SDS011;22064;42.672;23.282;2022-08-19T09:21:23;7.90;;;5.30;;
35990;SDS011;22064;42.672;23.282;2022-08-19T09:23:51;10.15;;;5.07;;
35990;SDS011;22064;42.672;23.282;2022-08-19T09:26:18;10.13;;;5.20;;
35990;SDS011;22064;42.672;23.282;2022-08-19T09:28:48;7.82;;;4.47;;
35990;SDS011;22064;42.672;23.282;2022-08-19T09:31:19;7.95;;;4.50;;
35990;SDS011;22064;42.672;23.282;2022-08-19T09:33:47;7.93;;;4.80;;
35990;SDS011;22064;42.672;23.282;2022-08-19T09:36:18;8.02;;;5.28;;
35990;SDS011;22064;42.672;23.282;2022-08-19T09:38:47;10.02;;;4.53;;
35990;SDS011;22064;42.672;23.282;2022-08-19T09:41:15;8.75;;;4.78;;
35990;SDS011;22064;42.672;23.282;2022-08-19T09:43:46;7.80;;;4.72;;
35990;SDS011;22064;42.672;23.282;2022-08-19T09:46:14;6.35;;;4.43;;
35990;SDS011;22064;42.672;23.282;2022-08-19T09:48:41;6.32;;;4.60;;
35990;SDS011;22064;42.672;23.282;2022-08-19T09:51:12;9.93;;;4.88;;
35990;SDS011;22064;42.672;23.282;2022-08-19T09:53:43;6.65;;;4.60;;
35990;SDS011;22064;42.672;23.282;2022-08-19T09:56:10;9.75;;;4.80;;
35990;SDS011;22064;42.672;23.282;2022-08-19T09:58:36;8.70;;;4.78;;
35990;SDS011;22064;42.672;23.282;2022-08-19T10:01:04;8.07;;;4.55;;
35990;SDS011;22064;42.672;23.282;2022-08-19T10:03:31;8.27;;;4.70;;
35990;SDS011;22064;42.672;23.282;2022-08-19T10:05:58;7.93;;;4.25;;
35990;SDS011;22064;42.672;23.282;2022-08-19T10:08:30;10.65;;;5.18;;
35990;SDS011;22064;42.672;23.282;2022-08-19T10:11:01;7.35;;;4.60;;
35990;SDS011;22064;42.672;23.282;2022-08-19T10:13:29;7.85;;;4.47;;
35990;SDS011;22064;42.672;23.282;2022-08-19T10:16:02;8.70;;;4.90;;
35990;SDS011;22064;42.672;23.282;2022-08-19T10:18:31;12.25;;;4.90;;
35990;SDS011;22064;42.672;23.282;2022-08-19T10:21:03;9.57;;;4.85;;
35990;SDS011;22064;42.672;23.282;2022-08-19T10:23:34;9.02;;;4.70;;
35990;SDS011;22064;42.672;23.282;2022-08-19T10:26:02;6.93;;;4.72;;
35990;SDS011;22064;42.672;23.282;2022-08-19T10:28:30;8.65;;;4.70;;
35990;SDS011;22064;42.672;23.282;2022-08-19T10:30:56;8.93;;;4.75;;
35990;SDS011;22064;42.672;23.282;2022-08-19T10:33:21;9.68;;;4.20;;
35990;SDS011;22064;42.672;23.282;2022-08-19T10:35:47;8.07;;;5.05;;
35990;SDS011;22064;42.672;23.282;2022-08-19T10:38:12;10.90;;;5.38;;
35990;SDS011;22064;42.672;23.282;2022-08-19T10:40:38;6.97;;;4.82;;
35990;SDS011;22064;42.672;23.282;2022-08-19T10:43:03;11.43;;;5.40;;
35990;SDS011;22064;42.672;23.282;2022-08-19T10:45:29;8.95;;;5.50;;
35990;SDS011;22064;42.672;23.282;2022-08-19T10:47:54;9.05;;;5.50;;
35990;SDS011;22064;42.672;23.282;2022-08-19T10:50:20;11.95;;;5.50;;
35990;SDS011;22064;42.672;23.282;2022-08-19T10:53:05;11.07;;;5.72;;
35990;SDS011;22064;42.672;23.282;2022-08-19T10:55:35;7.95;;;5.47;;
35990;SDS011;22064;42.672;23.282;2022-08-19T10:58:20;12.40;;;5.40;;
35990;SDS011;22064;42.672;23.282;2022-08-19T11:00:56;8.30;;;5.22;;
35990;SDS011;22064;42.672;23.282;2022-08-19T11:03:23;7.07;;;5.28;;
35990;SDS011;22064;42.672;23.282;2022-08-19T11:06:00;8.43;;;5.45;;
35990;SDS011;22064;42.672;23.282;2022-08-19T11:08:27;7.60;;;4.88;;
35990;SDS011;22064;42.672;23.282;2022-08-19T11:10:53;10.68;;;5.88;;
35990;SDS011;22064;42.672;23.282;2022-08-19T11:13:33;7.18;;;5.22;;
35990;SDS011;22064;42.672;23.282;2022-08-19T11:16:03;9.05;;;5.30;;
35990;SDS011;22064;42.672;23.282;2022-08-19T11:18:32;9.60;;;5.05;;
35990;SDS011;22064;42.672;23.282;2022-08-19T11:21:06;7.18;;;5.18;;
35990;SDS011;22064;42.672;23.282;2022-08-19T11:23:36;8.50;;;5.45;;
35990;SDS011;22064;42.672;23.282;2022-08-19T11:26:02;9.00;;;5.05;;
35990;SDS011;22064;42.672;23.282;2022-08-19T11:28:28;9.52;;;5.50;;
35990;SDS011;22064;42.672;23.282;2022-08-19T11:30:54;9.80;;;5.55;;
35990;SDS011;22064;42.672;23.282;2022-08-19T11:33:20;8.90;;;5.22;;
35990;SDS011;22064;42.672;23.282;2022-08-19T11:35:45;10.98;;;5.88;;
35990;SDS011;22064;42.672;23.282;2022-08-19T11:38:11;9.05;;;5.32;;
35990;SDS011;22064;42.672;23.282;2022-08-19T11:40:36;9.38;;;5.20;;
35990;SDS011;22064;42.672;23.282;2022-08-19T11:43:02;6.88;;;5.15;;
35990;SDS011;22064;42.672;23.282;2022-08-19T11:45:29;9.10;;;5.32;;
35990;SDS011;22064;42.672;23.282;2022-08-19T11:47:55;10.35;;;5.60;;
35990;SDS011;22064;42.672;23.282;2022-08-19T11:50:21;6.45;;;4.80;;
35990;SDS011;22064;42.672;23.282;2022-08-19T11:52:48;8.27;;;5.55;;
35990;SDS011;22064;42.672;23.282;2022-08-19T11:55:14;10.13;;;5.88;;
35990;SDS011;22064;42.672;23.282;2022-08-19T11:57:40;10.70;;;5.65;;
35990;SDS011;22064;42.672;23.282;2022-08-19T12:00:08;10.88;;;5.30;;
35990;SDS011;22064;42.672;23.282;2022-08-19T12:02:37;9.13;;;5.63;;
35990;SDS011;22064;42.672;23.282;2022-08-19T12:05:03;10.00;;;5.50;;
35990;SDS011;22064;42.672;23.282;2022-08-19T12:07:29;9.95;;;5.30;;
35990;SDS011;22064;42.672;23.282;2022-08-19T12:09:56;8.07;;;5.32;;
35990;SDS011;22064;42.672;23.282;2022-08-19T12:12:22;9.68;;;5.70;;
35990;SDS011;22064;42.672;23.282;2022-08-19T12:14:48;8.57;;;5.57;;
35990;SDS011;22064;42.672;23.282;2022-08-19T12:17:15;9.57;;;5.60;;
35990;SDS011;22064;42.672;23.282;2022-08-19T12:19:41;6.75;;;4.95;;
35990;SDS011;22064;42.672;23.282;2022-08-19T12:22:06;7.50;;;5.47;;
35990;SDS011;22064;42.672;23.282;2022-08-19T12:24:33;7.55;;;5.53;;
35990;SDS011;22064;42.672;23.282;2022-08-19T12:26:59;11.57;;;5.32;;
35990;SDS011;22064;42.672;23.282;2022-08-19T12:29:27;7.25;;;5.28;;
35990;SDS011;22064;42.672;23.282;2022-08-19T12:31:53;8.80;;;5.20;;
35990;SDS011;22064;42.672;23.282;2022-08-19T12:34:25;7.72;;;5.05;;
35990;SDS011;22064;42.672;23.282;2022-08-19T12:39:20;13.95;;;5.35;;
35990;SDS011;22064;42.672;23.282;2022-08-19T12:41:45;10.13;;;5.15;;
35990;SDS011;22064;42.672;23.282;2022-08-19T12:44:11;10.20;;;5.57;;
35990;SDS011;22064;42.672;23.282;2022-08-19T12:46:37;12.73;;;5.47;;
35990;SDS011;22064;42.672;23.282;2022-08-19T12:49:03;11.20;;;5.50;;
35990;SDS011;22064;42.672;23.282;2022-08-19T12:51:28;7.55;;;5.40;;
35990;SDS011;22064;42.672;23.282;2022-08-19T12:53:55;8.60;;;5.18;;
35990;SDS011;22064;42.672;23.282;2022-08-19T12:56:20;9.85;;;5.07;;
35990;SDS011;22064;42.672;23.282;2022-08-19T12:58:46;7.85;;;5.20;;
35990;SDS011;22064;42.672;23.282;2022-08-19T13:01:12;8.52;;;5.20;;
35990;SDS011;22064;42.672;23.282;2022-08-19T13:03:39;9.07;;;5.80;;
35990;SDS011;22064;42.672;23.282;2022-08-19T13:06:05;9.43;;;5.07;;
35990;SDS011;22064;42.672;23.282;2022-08-19T13:08:32;11.27;;;5.50;;
35990;SDS011;22064;42.672;23.282;2022-08-19T13:10:57;9.32;;;5.07;;
35990;SDS011;22064;42.672;23.282;2022-08-19T13:13:31;7.43;;;4.78;;
35990;SDS011;22064;42.672;23.282;2022-08-19T13:15:59;8.60;;;4.97;;
35990;SDS011;22064;42.672;23.282;2022-08-19T13:18:27;11.27;;;5.32;;
35990;SDS011;22064;42.672;23.282;2022-08-19T13:20:52;11.63;;;5.30;;
35990;SDS011;22064;42.672;23.282;2022-08-19T13:23:18;7.47;;;4.75;;
35990;SDS011;22064;42.672;23.282;2022-08-19T13:25:43;9.25;;;5.10;;
35990;SDS011;22064;42.672;23.282;2022-08-19T13:28:09;7.35;;;5.10;;
35990;SDS011;22064;42.672;23.282;2022-08-19T13:30:34;10.10;;;5.65;;
35990;SDS011;22064;42.672;23.282;2022-08-19T13:33:18;11.32;;;5.63;;
35990;SDS011;22064;42.672;23.282;2022-08-19T13:38:22;9.68;;;4.95;;
35990;SDS011;22064;42.672;23.282;2022-08-19T13:40:49;8.75;;;5.15;;
35990;SDS011;22064;42.672;23.282;2022-08-19T13:43:17;7.50;;;5.30;;
35990;SDS011;22064;42.672;23.282;2022-08-19T13:45:45;8.02;;;5.32;;
35990;SDS011;22064;42.672;23.282;2022-08-19T13:48:10;8.52;;;4.80;;
35990;SDS011;22064;42.672;23.282;2022-08-19T13:50:40;8.77;;;4.93;;
35990;SDS011;22064;42.672;23.282;2022-08-19T13:53:08;11.98;;;5.30;;
35990;SDS011;22064;42.672;23.282;2022-08-19T13:55:35;7.72;;;5.30;;
35990;SDS011;22064;42.672;23.282;2022-08-19T13:58:02;8.10;;;5.87;;
35990;SDS011;22064;42.672;23.282;2022-08-19T14:00:32;7.63;;;5.18;;
35990;SDS011;22064;42.672;23.282;2022-08-19T14:03:01;8.82;;;5.43;;
35990;SDS011;22064;42.672;23.282;2022-08-19T14:05:27;10.50;;;5.22;;
35990;SDS011;22064;42.672;23.282;2022-08-19T14:07:54;8.30;;;5.28;;
35990;SDS011;22064;42.672;23.282;2022-08-19T14:10:20;9.43;;;5.32;;
35990;SDS011;22064;42.672;23.282;2022-08-19T14:12:47;7.80;;;5.68;;
35990;SDS011;22064;42.672;23.282;2022-08-19T14:15:13;9.05;;;5.05;;
35990;SDS011;22064;42.672;23.282;2022-08-19T14:17:40;9.40;;;5.38;;
35990;SDS011;22064;42.672;23.282;2022-08-19T14:20:12;13.77;;;5.80;;
35990;SDS011;22064;42.672;23.282;2022-08-19T14:22:40;7.47;;;5.05;;
35990;SDS011;22064;42.672;23.282;2022-08-19T14:25:11;10.07;;;5.22;;
35990;SDS011;22064;42.672;23.282;2022-08-19T14:27:43;10.48;;;6.00;;
35990;SDS011;22064;42.672;23.282;2022-08-19T14:30:10;8.52;;;5.28;;
35990;SDS011;22064;42.672;23.282;2022-08-19T14:32:38;9.20;;;5.40;;
35990;SDS011;22064;42.672;23.282;2022-08-19T14:35:04;7.05;;;5.55;;
35990;SDS011;22064;42.672;23.282;2022-08-19T14:37:32;12.18;;;5.22;;
35990;SDS011;22064;42.672;23.282;2022-08-19T14:39:59;7.38;;;5.05;;
35990;SDS011;22064;42.672;23.282;2022-08-19T14:42:24;7.85;;;5.20;;
35990;SDS011;22064;42.672;23.282;2022-08-19T14:44:50;7.88;;;5.50;;
35990;SDS011;22064;42.672;23.282;2022-08-19T14:47:15;7.05;;;4.90;;
35990;SDS011;22064;42.672;23.282;2022-08-19T14:49:41;10.90;;;5.22;;
35990;SDS011;22064;42.672;23.282;2022-08-19T14:52:07;7.07;;;5.35;;
35990;SDS011;22064;42.672;23.282;2022-08-19T14:54:32;9.57;;;5.43;;
35990;SDS011;22064;42.672;23.282;2022-08-19T14:56:58;9.07;;;5.18;;
35990;SDS011;22064;42.672;23.282;2022-08-19T14:59:24;8.18;;;5.85;;
35990;SDS011;22064;42.672;23.282;2022-08-19T15:01:49;8.23;;;5.20;;